CDT,Max TemperatureF,Mean TemperatureF,Min TemperatureF,Max Dew PointF,MeanDew PointF,Min DewpointF,Max Humidity, Mean Humidity, Min Humidity, Max Sea Level PressureIn, Mean Sea Level PressureIn, Min Sea Level PressureIn, Max VisibilityMiles, Mean VisibilityMiles, Min VisibilityMiles, Max Wind SpeedMPH, Mean Wind SpeedMPH, Max Gust SpeedMPH,PrecipitationIn, CloudCover, Events, WindDirDegrees
2013-3-1,48,36,24,28,24,18,74,59,40,30.35,30.26,30.20,10,10,9,25,12,36,0.00,3,,338
2013-3-2,64,44,24,36,27,19,86,59,30,30.35,30.23,30.11,10,10,10,20,9,23,0.00,1,,271
2013-3-3,69,51,33,41,33,25,75,58,33,30.10,29.80,29.58,10,10,10,15,9,,0.00,0,,197
2013-3-4,57,45,33,39,31,23,81,63,38,30.21,29.80,29.59,10,10,3,41,15,47,0.00,2,,356
2013-3-5,48,34,21,27,13,10,75,44,23,30.41,30.33,30.20,10,10,9,22,13,28,0.00,0,,339
2013-3-6,51,38,24,23,19,12,69,48,30,30.32,30.16,29.99,10,10,10,31,15,38,0.00,0,,159
2013-3-7,77,54,30,34,26,18,64,40,19,29.99,29.92,29.84,10,10,10,24,12,29,0.05,0,,167
2013-3-8,69,58,48,50,41,28,82,58,40,29.95,29.85,29.75,10,10,10,29,16,37,0.05,3,Thunderstorm,178
2013-3-9,66,50,33,50,34,14,88,57,15,29.78,29.65,29.52,10,10,10,34,20,54,0.00,4,,227
2013-3-10,39,29,19,27,18,9,86,58,33,30.10,30.00,29.77,10,9,1,41,29,53,0.00,4,,342
2013-3-11,62,40,17,28,20,9,80,50,22,30.10,29.99,29.90,10,10,10,17,9,23,0.00,1,,316
2013-3-12,53,40,26,32,24,19,81,52,26,30.35,30.25,30.04,10,10,10,21,12,25,0.00,0,,356
2013-3-13,66,47,28,36,27,18,75,48,24,30.35,30.28,30.21,10,10,0,24,9,31,0.00,0,,183
2013-3-14,77,54,30,43,30,23,75,44,17,30.23,30.19,30.12,10,10,10,18,8,23,0.00,0,,287
2013-3-15,82,62,42,39,28,23,57,33,12,30.12,29.94,29.77,10,10,10,20,10,23,0.00,0,,234
2013-3-16,55,46,37,34,28,19,62,46,35,29.98,29.89,29.73,10,10,10,30,14,36,0.00,1,,41
2013-3-17,55,40,26,34,27,19,75,60,44,29.97,29.79,29.58,10,10,10,24,10,29,0.00,2,,94
2013-3-18,55,42,28,30,22,14,75,48,21,30.05,29.94,29.68,10,10,8,20,11,22,0.00,0,,22
2013-3-19,55,44,30,28,18,7,60,42,19,30.27,30.09,29.95,10,10,9,20,11,24,0.00,0,,83
2013-3-20,59,40,21,27,18,7,74,45,23,30.36,30.17,29.83,10,10,10,23,9,28,0.00,0,,114
2013-3-21,64,50,35,36,27,21,61,47,34,29.81,29.64,29.52,10,10,2,26,13,33,0.00,1,,96
2013-3-22,55,39,23,32,25,16,80,57,33,29.93,29.84,29.76,10,10,6,18,10,23,0.00,1,,46
2013-3-23,37,32,26,28,26,18,86,77,60,30.10,29.86,29.76,10,5,0,29,16,32,0.00,7,,69
2013-3-24,35,26,17,23,18,10,80,68,52,30.23,30.16,30.10,10,10,4,24,16,29,0.00,4,,355
2013-3-25,41,29,17,18,14,7,73,54,33,30.37,30.31,30.24,10,10,10,23,12,30,0.00,1,,340
2013-3-26,62,37,12,27,16,5,74,47,20,30.37,30.19,29.99,10,10,10,31,10,38,0.00,0,,203
2013-3-27,64,50,35,28,22,16,52,35,24,30.13,30.02,29.92,10,10,10,25,17,31,0.00,0,,42
2013-3-28,66,49,32,41,33,21,75,51,37,30.14,30.09,30.04,10,10,5,14,9,17,0.00,0,,71
2013-3-29,69,54,39,52,45,34,87,68,49,30.13,30.08,30.00,10,9,2,17,9,21,0.00,0,,84
2013-3-30,75,58,42,48,39,32,87,53,22,30.07,30.00,29.93,10,8,0,33,8,41,0.00,1,,349
2013-3-31,66,54,42,43,35,27,81,52,23,30.14,30.07,29.97,10,10,10,28,13,43,0.01,2,,25